sensor_id;sensor_type;location;lat;lon;timestamp;P1;durP1;ratioP1;P2;durP2;ratioP2
63714;SDS011;49858;48.956;9.076;2024-01-06T00:02:10;6.85;;;3.42;;
63714;SDS011;49858;48.956;9.076;2024-01-06T00:04:38;10.35;;;4.70;;
63714;SDS011;49858;48.956;9.076;2024-01-06T00:07:06;10.57;;;5.57;;
63714;SDS011;49858;48.956;9.076;2024-01-06T00:09:34;12.45;;;6.55;;
63714;SDS011;49858;48.956;9.076;2024-01-06T00:12:02;11.65;;;5.88;;
63714;SDS011;49858;48.956;9.076;2024-01-06T00:14:30;10.05;;;4.57;;
63714;SDS011;49858;48.956;9.076;2024-01-06T00:17:01;14.43;;;5.88;;
63714;SDS011;49858;48.956;9.076;2024-01-06T00:19:29;7.40;;;4.57;;
63714;SDS011;49858;48.956;9.076;2024-01-06T00:21:57;8.38;;;4.00;;
63714;SDS011;49858;48.956;9.076;2024-01-06T00:24:27;9.38;;;5.22;;
63714;SDS011;49858;48.956;9.076;2024-01-06T00:26:55;6.25;;;4.15;;
63714;SDS011;49858;48.956;9.076;2024-01-06T00:29:22;5.20;;;1.92;;
63714;SDS011;49858;48.956;9.076;2024-01-06T00:31:50;3.67;;;2.05;;
63714;SDS011;49858;48.956;9.076;2024-01-06T00:34:19;3.33;;;1.67;;
63714;SDS011;49858;48.956;9.076;2024-01-06T00:36:47;2.60;;;1.80;;
63714;SDS011;49858;48.956;9.076;2024-01-06T00:39:15;1.40;;;1.30;;
63714;SDS011;49858;48.956;9.076;2024-01-06T00:41:43;1.38;;;1.17;;
63714;SDS011;49858;48.956;9.076;2024-01-06T00:44:11;16.40;;;1.50;;
63714;SDS011;49858;48.956;9.076;2024-01-06T00:46:39;1.63;;;1.25;;
63714;SDS011;49858;48.956;9.076;2024-01-06T00:49:07;3.53;;;2.20;;
63714;SDS011;49858;48.956;9.076;2024-01-06T00:51:36;6.20;;;3.08;;
63714;SDS011;49858;48.956;9.076;2024-01-06T00:54:05;3.88;;;2.17;;
63714;SDS011;49858;48.956;9.076;2024-01-06T00:56:33;2.58;;;1.58;;
63714;SDS011;49858;48.956;9.076;2024-01-06T00:59:01;1.92;;;1.52;;
63714;SDS011;49858;48.956;9.076;2024-01-06T01:01:29;5.00;;;1.50;;
63714;SDS011;49858;48.956;9.076;2024-01-06T01:03:57;6.90;;;3.75;;
63714;SDS011;49858;48.956;9.076;2024-01-06T01:06:26;1.77;;;1.67;;
63714;SDS011;49858;48.956;9.076;2024-01-06T01:08:55;4.35;;;1.98;;
63714;SDS011;49858;48.956;9.076;2024-01-06T01:11:23;12.55;;;4.15;;
63714;SDS011;49858;48.956;9.076;2024-01-06T01:13:51;5.07;;;2.63;;
63714;SDS011;49858;48.956;9.076;2024-01-06T01:16:19;6.80;;;2.78;;
63714;SDS011;49858;48.956;9.076;2024-01-06T01:18:47;4.22;;;2.63;;
63714;SDS011;49858;48.956;9.076;2024-01-06T01:21:15;6.03;;;3.38;;
63714;SDS011;49858;48.956;9.076;2024-01-06T01:23:42;9.10;;;4.97;;
63714;SDS011;49858;48.956;9.076;2024-01-06T01:26:12;8.10;;;3.63;;
63714;SDS011;49858;48.956;9.076;2024-01-06T01:28:39;9.55;;;3.78;;
63714;SDS011;49858;48.956;9.076;2024-01-06T01:31:08;3.67;;;1.77;;
63714;SDS011;49858;48.956;9.076;2024-01-06T01:33:36;6.97;;;4.25;;
63714;SDS011;49858;48.956;9.076;2024-01-06T01:36:04;4.68;;;2.17;;
63714;SDS011;49858;48.956;9.076;2024-01-06T01:38:32;5.25;;;3.35;;
63714;SDS011;49858;48.956;9.076;2024-01-06T01:41:00;6.28;;;3.97;;
63714;SDS011;49858;48.956;9.076;2024-01-06T01:43:29;5.15;;;3.10;;
63714;SDS011;49858;48.956;9.076;2024-01-06T01:45:58;7.07;;;4.07;;
63714;SDS011;49858;48.956;9.076;2024-01-06T01:48:25;8.00;;;3.53;;
63714;SDS011;49858;48.956;9.076;2024-01-06T01:50:53;10.98;;;5.15;;
63714;SDS011;49858;48.956;9.076;2024-01-06T01:53:22;9.45;;;5.45;;
63714;SDS011;49858;48.956;9.076;2024-01-06T01:55:52;8.77;;;4.60;;
63714;SDS011;49858;48.956;9.076;2024-01-06T01:58:21;12.07;;;4.78;;
63714;SDS011;49858;48.956;9.076;2024-01-06T02:00:50;8.73;;;3.97;;
63714;SDS011;49858;48.956;9.076;2024-01-06T02:03:18;6.72;;;3.90;;
63714;SDS011;49858;48.956;9.076;2024-01-06T02:05:47;7.97;;;4.88;;
63714;SDS011;49858;48.956;9.076;2024-01-06T02:08:15;10.32;;;4.22;;
63714;SDS011;49858;48.956;9.076;2024-01-06T02:10:42;7.88;;;4.75;;
63714;SDS011;49858;48.956;9.076;2024-01-06T02:13:10;8.02;;;4.25;;
63714;SDS011;49858;48.956;9.076;2024-01-06T02:15:39;5.60;;;4.00;;
63714;SDS011;49858;48.956;9.076;2024-01-06T02:18:08;6.28;;;4.00;;
63714;SDS011;49858;48.956;9.076;2024-01-06T02:20:37;5.60;;;3.00;;
63714;SDS011;49858;48.956;9.076;2024-01-06T02:23:06;4.22;;;1.23;;
63714;SDS011;49858;48.956;9.076;2024-01-06T02:25:34;5.35;;;2.05;;
63714;SDS011;49858;48.956;9.076;2024-01-06T02:28:02;6.07;;;3.35;;
63714;SDS011;49858;48.956;9.076;2024-01-06T02:30:30;3.50;;;2.45;;
63714;SDS011;49858;48.956;9.076;2024-01-06T02:32:58;2.30;;;1.67;;
63714;SDS011;49858;48.956;9.076;2024-01-06T02:35:26;3.13;;;1.70;;
63714;SDS011;49858;48.956;9.076;2024-01-06T02:37:54;2.30;;;1.70;;
63714;SDS011;49858;48.956;9.076;2024-01-06T02:40:23;2.38;;;2.17;;
63714;SDS011;49858;48.956;9.076;2024-01-06T02:42:51;2.72;;;1.75;;
63714;SDS011;49858;48.956;9.076;2024-01-06T02:45:19;2.13;;;1.17;;
63714;SDS011;49858;48.956;9.076;2024-01-06T02:47:47;2.75;;;2.05;;
63714;SDS011;49858;48.956;9.076;2024-01-06T02:50:15;2.60;;;1.42;;
63714;SDS011;49858;48.956;9.076;2024-01-06T02:52:43;1.20;;;0.88;;
63714;SDS011;49858;48.956;9.076;2024-01-06T02:55:15;3.75;;;1.83;;
63714;SDS011;49858;48.956;9.076;2024-01-06T02:57:44;2.70;;;1.75;;
63714;SDS011;49858;48.956;9.076;2024-01-06T03:00:15;1.98;;;0.98;;
63714;SDS011;49858;48.956;9.076;2024-01-06T03:02:43;1.85;;;1.27;;
63714;SDS011;49858;48.956;9.076;2024-01-06T03:05:13;2.35;;;1.10;;
63714;SDS011;49858;48.956;9.076;2024-01-06T03:07:41;3.75;;;1.80;;
63714;SDS011;49858;48.956;9.076;2024-01-06T03:10:09;2.60;;;1.50;;
63714;SDS011;49858;48.956;9.076;2024-01-06T03:12:37;3.08;;;1.42;;
63714;SDS011;49858;48.956;9.076;2024-01-06T03:15:07;3.42;;;1.73;;
63714;SDS011;49858;48.956;9.076;2024-01-06T03:17:36;2.05;;;1.38;;
63714;SDS011;49858;48.956;9.076;2024-01-06T03:20:05;2.00;;;1.60;;
63714;SDS011;49858;48.956;9.076;2024-01-06T03:22:34;1.42;;;1.33;;
63714;SDS011;49858;48.956;9.076;2024-01-06T03:25:02;6.55;;;1.13;;
63714;SDS011;49858;48.956;9.076;2024-01-06T03:27:30;3.13;;;1.48;;
63714;SDS011;49858;48.956;9.076;2024-01-06T03:29:58;3.20;;;1.83;;
63714;SDS011;49858;48.956;9.076;2024-01-06T03:32:27;2.08;;;1.42;;
63714;SDS011;49858;48.956;9.076;2024-01-06T03:34:56;2.47;;;1.83;;
63714;SDS011;49858;48.956;9.076;2024-01-06T03:37:24;5.40;;;1.88;;
63714;SDS011;49858;48.956;9.076;2024-01-06T03:39:52;6.07;;;3.30;;
63714;SDS011;49858;48.956;9.076;2024-01-06T03:42:20;5.28;;;2.83;;
63714;SDS011;49858;48.956;9.076;2024-01-06T03:44:47;7.10;;;3.47;;
63714;SDS011;49858;48.956;9.076;2024-01-06T03:47:15;9.10;;;4.30;;
63714;SDS011;49858;48.956;9.076;2024-01-06T03:49:46;9.90;;;3.92;;
63714;SDS011;49858;48.956;9.076;2024-01-06T03:52:14;7.07;;;4.57;;
63714;SDS011;49858;48.956;9.076;2024-01-06T03:54:42;7.93;;;4.05;;
63714;SDS011;49858;48.956;9.076;2024-01-06T03:57:10;6.63;;;4.38;;
63714;SDS011;49858;48.956;9.076;2024-01-06T03:59:37;7.68;;;4.15;;
63714;SDS011;49858;48.956;9.076;2024-01-06T04:02:05;6.90;;;3.80;;
63714;SDS011;49858;48.956;9.076;2024-01-06T04:04:33;9.93;;;3.30;;
63714;SDS011;49858;48.956;9.076;2024-01-06T04:07:02;7.90;;;3.08;;
63714;SDS011;49858;48.956;9.076;2024-01-06T04:09:31;5.20;;;3.30;;
63714;SDS011;49858;48.956;9.076;2024-01-06T04:11:59;9.88;;;3.83;;
63714;SDS011;49858;48.956;9.076;2024-01-06T04:14:28;9.40;;;3.47;;
63714;SDS011;49858;48.956;9.076;2024-01-06T04:16:56;2.22;;;1.40;;
63714;SDS011;49858;48.956;9.076;2024-01-06T04:19:23;3.63;;;2.42;;
63714;SDS011;49858;48.956;9.076;2024-01-06T04:21:51;3.72;;;1.17;;
63714;SDS011;49858;48.956;9.076;2024-01-06T04:24:22;10.82;;;2.15;;
63714;SDS011;49858;48.956;9.076;2024-01-06T04:26:50;4.00;;;2.20;;
63714;SDS011;49858;48.956;9.076;2024-01-06T04:29:18;3.47;;;2.38;;
63714;SDS011;49858;48.956;9.076;2024-01-06T04:31:46;2.30;;;1.63;;
63714;SDS011;49858;48.956;9.076;2024-01-06T04:34:14;7.22;;;1.30;;
63714;SDS011;49858;48.956;9.076;2024-01-06T04:36:41;1.67;;;1.58;;
63714;SDS011;49858;48.956;9.076;2024-01-06T04:39:09;3.13;;;1.73;;
63714;SDS011;49858;48.956;9.076;2024-01-06T04:41:40;3.38;;;0.95;;
63714;SDS011;49858;48.956;9.076;2024-01-06T04:44:08;0.95;;;0.73;;
63714;SDS011;49858;48.956;9.076;2024-01-06T04:46:36;4.30;;;1.67;;
63714;SDS011;49858;48.956;9.076;2024-01-06T04:49:04;2.80;;;1.55;;
63714;SDS011;49858;48.956;9.076;2024-01-06T04:51:32;8.68;;;1.80;;
63714;SDS011;49858;48.956;9.076;2024-01-06T04:54:00;1.25;;;1.15;;
63714;SDS011;49858;48.956;9.076;2024-01-06T04:56:28;0.93;;;0.80;;
63714;SDS011;49858;48.956;9.076;2024-01-06T04:58:59;4.68;;;1.45;;
63714;SDS011;49858;48.956;9.076;2024-01-06T05:01:27;5.07;;;1.98;;
63714;SDS011;49858;48.956;9.076;2024-01-06T05:03:55;4.63;;;1.67;;
63714;SDS011;49858;48.956;9.076;2024-01-06T05:06:23;1.17;;;1.02;;
63714;SDS011;49858;48.956;9.076;2024-01-06T05:08:51;3.08;;;1.60;;
63714;SDS011;49858;48.956;9.076;2024-01-06T05:11:19;1.50;;;1.40;;
63714;SDS011;49858;48.956;9.076;2024-01-06T05:13:47;3.88;;;1.92;;
63714;SDS011;49858;48.956;9.076;2024-01-06T05:16:16;2.05;;;1.25;;
63714;SDS011;49858;48.956;9.076;2024-01-06T05:18:44;1.75;;;1.45;;
63714;SDS011;49858;48.956;9.076;2024-01-06T05:21:11;1.75;;;1.13;;
63714;SDS011;49858;48.956;9.076;2024-01-06T05:23:40;0.73;;;0.73;;
63714;SDS011;49858;48.956;9.076;2024-01-06T05:26:07;1.10;;;0.98;;
63714;SDS011;49858;48.956;9.076;2024-01-06T05:28:35;3.42;;;1.75;;
63714;SDS011;49858;48.956;9.076;2024-01-06T05:31:03;3.30;;;1.58;;
63714;SDS011;49858;48.956;9.076;2024-01-06T05:33:33;9.90;;;1.58;;
63714;SDS011;49858;48.956;9.076;2024-01-06T05:36:01;2.55;;;1.48;;
63714;SDS011;49858;48.956;9.076;2024-01-06T05:38:29;4.35;;;1.77;;
63714;SDS011;49858;48.956;9.076;2024-01-06T05:40:57;9.88;;;2.15;;
63714;SDS011;49858;48.956;9.076;2024-01-06T05:43:25;3.60;;;1.98;;
63714;SDS011;49858;48.956;9.076;2024-01-06T05:45:53;4.25;;;1.98;;
63714;SDS011;49858;48.956;9.076;2024-01-06T05:48:21;3.72;;;1.98;;
63714;SDS011;49858;48.956;9.076;2024-01-06T05:50:50;3.15;;;2.05;;
63714;SDS011;49858;48.956;9.076;2024-01-06T05:53:18;5.05;;;2.00;;
63714;SDS011;49858;48.956;9.076;2024-01-06T05:55:46;5.85;;;2.20;;
63714;SDS011;49858;48.956;9.076;2024-01-06T05:58:14;3.60;;;2.38;;
63714;SDS011;49858;48.956;9.076;2024-01-06T06:00:42;2.47;;;1.48;;
63714;SDS011;49858;48.956;9.076;2024-01-06T06:03:10;3.00;;;1.42;;
63714;SDS011;49858;48.956;9.076;2024-01-06T06:05:38;10.15;;;2.03;;
63714;SDS011;49858;48.956;9.076;2024-01-06T06:08:07;5.78;;;2.03;;
63714;SDS011;49858;48.956;9.076;2024-01-06T06:10:35;10.15;;;3.10;;
63714;SDS011;49858;48.956;9.076;2024-01-06T06:13:18;7.28;;;2.58;;
63714;SDS011;49858;48.956;9.076;2024-01-06T06:15:46;6.97;;;2.42;;
63714;SDS011;49858;48.956;9.076;2024-01-06T06:18:14;6.50;;;2.65;;
63714;SDS011;49858;48.956;9.076;2024-01-06T06:20:43;6.60;;;2.50;;
63714;SDS011;49858;48.956;9.076;2024-01-06T06:23:12;7.82;;;2.85;;
63714;SDS011;49858;48.956;9.076;2024-01-06T06:25:40;4.70;;;2.30;;
63714;SDS011;49858;48.956;9.076;2024-01-06T06:28:08;6.47;;;2.53;;
63714;SDS011;49858;48.956;9.076;2024-01-06T06:30:36;5.32;;;3.28;;
63714;SDS011;49858;48.956;9.076;2024-01-06T06:33:04;4.68;;;2.78;;
63714;SDS011;49858;48.956;9.076;2024-01-06T06:35:32;9.88;;;3.40;;
63714;SDS011;49858;48.956;9.076;2024-01-06T06:38:00;8.43;;;2.67;;
63714;SDS011;49858;48.956;9.076;2024-01-06T06:40:29;3.30;;;1.85;;
63714;SDS011;49858;48.956;9.076;2024-01-06T06:42:57;5.32;;;1.70;;
63714;SDS011;49858;48.956;9.076;2024-01-06T06:45:25;1.92;;;1.25;;
63714;SDS011;49858;48.956;9.076;2024-01-06T06:47:53;4.85;;;2.70;;
63714;SDS011;49858;48.956;9.076;2024-01-06T06:50:20;6.22;;;2.38;;
63714;SDS011;49858;48.956;9.076;2024-01-06T06:52:48;1.48;;;1.17;;
63714;SDS011;49858;48.956;9.076;2024-01-06T06:55:16;1.85;;;1.33;;
63714;SDS011;49858;48.956;9.076;2024-01-06T06:57:46;0.60;;;0.60;;
63714;SDS011;49858;48.956;9.076;2024-01-06T07:00:15;1.08;;;0.98;;
63714;SDS011;49858;48.956;9.076;2024-01-06T07:02:43;4.07;;;2.90;;
63714;SDS011;49858;48.956;9.076;2024-01-06T07:05:11;2.05;;;1.67;;
63714;SDS011;49858;48.956;9.076;2024-01-06T07:07:39;7.47;;;2.72;;
63714;SDS011;49858;48.956;9.076;2024-01-06T07:10:07;5.18;;;2.83;;
63714;SDS011;49858;48.956;9.076;2024-01-06T07:12:35;11.82;;;2.90;;
63714;SDS011;49858;48.956;9.076;2024-01-06T07:15:05;5.63;;;2.55;;
63714;SDS011;49858;48.956;9.076;2024-01-06T07:17:34;4.22;;;2.50;;
63714;SDS011;49858;48.956;9.076;2024-01-06T07:20:02;5.65;;;3.30;;
63714;SDS011;49858;48.956;9.076;2024-01-06T07:22:30;6.28;;;3.78;;
63714;SDS011;49858;48.956;9.076;2024-01-06T07:24:58;4.93;;;3.03;;
63714;SDS011;49858;48.956;9.076;2024-01-06T07:27:26;9.43;;;4.35;;
63714;SDS011;49858;48.956;9.076;2024-01-06T07:29:54;7.38;;;3.10;;
63714;SDS011;49858;48.956;9.076;2024-01-06T07:32:24;6.00;;;2.90;;
63714;SDS011;49858;48.956;9.076;2024-01-06T07:34:52;6.07;;;2.75;;
63714;SDS011;49858;48.956;9.076;2024-01-06T07:37:20;3.35;;;2.17;;
63714;SDS011;49858;48.956;9.076;2024-01-06T07:39:48;5.70;;;2.75;;
63714;SDS011;49858;48.956;9.076;2024-01-06T07:42:16;3.53;;;2.00;;
63714;SDS011;49858;48.956;9.076;2024-01-06T07:44:44;5.03;;;2.80;;
63714;SDS011;49858;48.956;9.076;2024-01-06T07:47:12;8.10;;;3.15;;
63714;SDS011;49858;48.956;9.076;2024-01-06T07:49:42;15.10;;;1.98;;
63714;SDS011;49858;48.956;9.076;2024-01-06T07:52:10;3.10;;;2.10;;
63714;SDS011;49858;48.956;9.076;2024-01-06T07:54:38;2.83;;;2.10;;
63714;SDS011;49858;48.956;9.076;2024-01-06T07:57:05;3.40;;;1.90;;
63714;SDS011;49858;48.956;9.076;2024-01-06T07:59:33;4.03;;;1.77;;
63714;SDS011;49858;48.956;9.076;2024-01-06T08:02:01;1.98;;;1.17;;
63714;SDS011;49858;48.956;9.076;2024-01-06T08:04:29;3.20;;;2.30;;
63714;SDS011;49858;48.956;9.076;2024-01-06T08:06:58;5.47;;;2.67;;
63714;SDS011;49858;48.956;9.076;2024-01-06T08:09:26;5.22;;;2.80;;
63714;SDS011;49858;48.956;9.076;2024-01-06T08:11:54;5.78;;;3.63;;
63714;SDS011;49858;48.956;9.076;2024-01-06T08:14:22;7.15;;;4.15;;
63714;SDS011;49858;48.956;9.076;2024-01-06T08:16:50;13.02;;;5.53;;
63714;SDS011;49858;48.956;9.076;2024-01-06T08:19:18;7.50;;;3.47;;
63714;SDS011;49858;48.956;9.076;2024-01-06T08:21:46;7.80;;;3.40;;
63714;SDS011;49858;48.956;9.076;2024-01-06T08:24:15;8.05;;;3.20;;
63714;SDS011;49858;48.956;9.076;2024-01-06T08:26:43;4.55;;;3.33;;
63714;SDS011;49858;48.956;9.076;2024-01-06T08:29:11;9.25;;;3.65;;
63714;SDS011;49858;48.956;9.076;2024-01-06T08:31:40;8.88;;;3.42;;
63714;SDS011;49858;48.956;9.076;2024-01-06T08:34:08;8.80;;;3.83;;
63714;SDS011;49858;48.956;9.076;2024-01-06T08:36:36;10.68;;;4.60;;
63714;SDS011;49858;48.956;9.076;2024-01-06T08:39:04;12.05;;;3.97;;
63714;SDS011;49858;48.956;9.076;2024-01-06T08:41:34;7.68;;;5.25;;
63714;SDS011;49858;48.956;9.076;2024-01-06T08:44:02;14.55;;;7.32;;
63714;SDS011;49858;48.956;9.076;2024-01-06T08:46:30;15.43;;;7.07;;
63714;SDS011;49858;48.956;9.076;2024-01-06T08:48:58;13.93;;;5.97;;
63714;SDS011;49858;48.956;9.076;2024-01-06T08:51:26;16.83;;;6.35;;
63714;SDS011;49858;48.956;9.076;2024-01-06T08:53:54;10.43;;;5.18;;
63714;SDS011;49858;48.956;9.076;2024-01-06T08:56:22;8.45;;;5.50;;
63714;SDS011;49858;48.956;9.076;2024-01-06T08:58:51;10.02;;;5.00;;
63714;SDS011;49858;48.956;9.076;2024-01-06T09:01:19;11.60;;;5.55;;
63714;SDS011;49858;48.956;9.076;2024-01-06T09:03:48;11.35;;;5.25;;
63714;SDS011;49858;48.956;9.076;2024-01-06T09:06:16;6.50;;;3.80;;
63714;SDS011;49858;48.956;9.076;2024-01-06T09:08:44;5.60;;;3.10;;
63714;SDS011;49858;48.956;9.076;2024-01-06T09:11:12;7.72;;;3.38;;
63714;SDS011;49858;48.956;9.076;2024-01-06T09:13:40;5.05;;;2.70;;
63714;SDS011;49858;48.956;9.076;2024-01-06T09:16:09;3.25;;;2.30;;
63714;SDS011;49858;48.956;9.076;2024-01-06T09:18:38;5.43;;;3.72;;
63714;SDS011;49858;48.956;9.076;2024-01-06T09:21:06;7.97;;;3.35;;
63714;SDS011;49858;48.956;9.076;2024-01-06T09:23:34;1.85;;;1.75;;
63714;SDS011;49858;48.956;9.076;2024-01-06T09:26:02;10.80;;;4.07;;
63714;SDS011;49858;48.956;9.076;2024-01-06T09:28:30;9.77;;;4.30;;
63714;SDS011;49858;48.956;9.076;2024-01-06T09:30:58;9.30;;;3.45;;
63714;SDS011;49858;48.956;9.076;2024-01-06T09:33:27;3.60;;;2.28;;
63714;SDS011;49858;48.956;9.076;2024-01-06T09:35:55;5.50;;;2.80;;
63714;SDS011;49858;48.956;9.076;2024-01-06T09:38:23;5.25;;;3.47;;
63714;SDS011;49858;48.956;9.076;2024-01-06T09:40:52;4.95;;;3.25;;
63714;SDS011;49858;48.956;9.076;2024-01-06T09:43:21;5.38;;;2.45;;
63714;SDS011;49858;48.956;9.076;2024-01-06T09:45:55;1.33;;;1.23;;
63714;SDS011;49858;48.956;9.076;2024-01-06T09:48:31;3.25;;;2.08;;
63714;SDS011;49858;48.956;9.076;2024-01-06T09:51:08;1.73;;;1.63;;
63714;SDS011;49858;48.956;9.076;2024-01-06T09:53:46;3.88;;;2.63;;
63714;SDS011;49858;48.956;9.076;2024-01-06T09:56:17;4.53;;;2.63;;
63714;SDS011;49858;48.956;9.076;2024-01-06T09:58:45;4.60;;;2.53;;
63714;SDS011;49858;48.956;9.076;2024-01-06T10:01:13;6.60;;;3.25;;
63714;SDS011;49858;48.956;9.076;2024-01-06T10:03:44;9.35;;;3.90;;
63714;SDS011;49858;48.956;9.076;2024-01-06T10:06:13;8.00;;;3.60;;
63714;SDS011;49858;48.956;9.076;2024-01-06T10:08:42;6.60;;;3.28;;
63714;SDS011;49858;48.956;9.076;2024-01-06T10:11:10;5.63;;;2.58;;
63714;SDS011;49858;48.956;9.076;2024-01-06T10:13:38;6.90;;;3.95;;
63714;SDS011;49858;48.956;9.076;2024-01-06T10:16:06;5.72;;;3.55;;
63714;SDS011;49858;48.956;9.076;2024-01-06T10:18:34;11.35;;;3.63;;
63714;SDS011;49858;48.956;9.076;2024-01-06T10:21:04;5.50;;;3.08;;
63714;SDS011;49858;48.956;9.076;2024-01-06T10:23:33;10.25;;;4.00;;
63714;SDS011;49858;48.956;9.076;2024-01-06T10:26:03;7.18;;;3.67;;
63714;SDS011;49858;48.956;9.076;2024-01-06T10:28:31;7.75;;;4.95;;
63714;SDS011;49858;48.956;9.076;2024-01-06T10:30:59;7.85;;;4.35;;
63714;SDS011;49858;48.956;9.076;2024-01-06T10:33:31;12.70;;;4.68;;
63714;SDS011;49858;48.956;9.076;2024-01-06T10:36:00;9.40;;;3.88;;
63714;SDS011;49858;48.956;9.076;2024-01-06T10:38:30;5.63;;;3.28;;
63714;SDS011;49858;48.956;9.076;2024-01-06T10:40:59;8.18;;;4.25;;
63714;SDS011;49858;48.956;9.076;2024-01-06T10:43:29;5.70;;;2.78;;
63714;SDS011;49858;48.956;9.076;2024-01-06T10:46:02;7.80;;;4.23;;
63714;SDS011;49858;48.956;9.076;2024-01-06T10:48:31;8.07;;;3.60;;
63714;SDS011;49858;48.956;9.076;2024-01-06T10:51:01;5.85;;;3.30;;
63714;SDS011;49858;48.956;9.076;2024-01-06T10:53:33;2.97;;;2.05;;
63714;SDS011;49858;48.956;9.076;2024-01-06T10:56:02;10.88;;;2.90;;
63714;SDS011;49858;48.956;9.076;2024-01-06T10:58:31;6.03;;;4.68;;
63714;SDS011;49858;48.956;9.076;2024-01-06T11:01:03;13.05;;;4.57;;
63714;SDS011;49858;48.956;9.076;2024-01-06T11:03:31;6.95;;;3.72;;
63714;SDS011;49858;48.956;9.076;2024-01-06T11:05:59;9.40;;;4.50;;
63714;SDS011;49858;48.956;9.076;2024-01-06T11:08:28;4.68;;;3.15;;
63714;SDS011;49858;48.956;9.076;2024-01-06T11:10:58;6.40;;;3.15;;
63714;SDS011;49858;48.956;9.076;2024-01-06T11:13:26;7.65;;;3.75;;
63714;SDS011;49858;48.956;9.076;2024-01-06T11:15:54;9.20;;;4.20;;
63714;SDS011;49858;48.956;9.076;2024-01-06T11:18:32;4.35;;;2.78;;
63714;SDS011;49858;48.956;9.076;2024-01-06T11:21:15;8.65;;;4.32;;
63714;SDS011;49858;48.956;9.076;2024-01-06T11:26:45;6.25;;;3.33;;
63714;SDS011;49858;48.956;9.076;2024-01-06T11:29:13;9.52;;;3.83;;
63714;SDS011;49858;48.956;9.076;2024-01-06T11:31:40;8.35;;;4.60;;
63714;SDS011;49858;48.956;9.076;2024-01-06T11:34:13;4.15;;;2.55;;
63714;SDS011;49858;48.956;9.076;2024-01-06T11:36:43;11.48;;;4.40;;
63714;SDS011;49858;48.956;9.076;2024-01-06T11:42:04;6.90;;;3.63;;
63714;SDS011;49858;48.956;9.076;2024-01-06T11:44:36;6.00;;;3.60;;
63714;SDS011;49858;48.956;9.076;2024-01-06T11:47:06;6.07;;;3.45;;
63714;SDS011;49858;48.956;9.076;2024-01-06T11:49:34;7.78;;;4.45;;
63714;SDS011;49858;48.956;9.076;2024-01-06T11:52:02;8.98;;;3.90;;
63714;SDS011;49858;48.956;9.076;2024-01-06T11:54:30;7.43;;;3.63;;
63714;SDS011;49858;48.956;9.076;2024-01-06T11:56:58;6.78;;;3.33;;
63714;SDS011;49858;48.956;9.076;2024-01-06T11:59:28;9.60;;;4.55;;
63714;SDS011;49858;48.956;9.076;2024-01-06T12:01:56;7.07;;;3.50;;
63714;SDS011;49858;48.956;9.076;2024-01-06T12:04:24;7.50;;;3.05;;
63714;SDS011;49858;48.956;9.076;2024-01-06T12:07:04;5.68;;;4.00;;
63714;SDS011;49858;48.956;9.076;2024-01-06T12:09:32;9.32;;;3.97;;
63714;SDS011;49858;48.956;9.076;2024-01-06T12:12:01;4.65;;;2.80;;
63714;SDS011;49858;48.956;9.076;2024-01-06T12:14:31;7.03;;;3.60;;
63714;SDS011;49858;48.956;9.076;2024-01-06T12:16:59;5.35;;;3.08;;
63714;SDS011;49858;48.956;9.076;2024-01-06T12:19:29;3.42;;;2.53;;
63714;SDS011;49858;48.956;9.076;2024-01-06T12:22:05;5.47;;;2.22;;
63714;SDS011;49858;48.956;9.076;2024-01-06T12:24:33;7.38;;;4.32;;
63714;SDS011;49858;48.956;9.076;2024-01-06T12:27:01;7.78;;;4.18;;
63714;SDS011;49858;48.956;9.076;2024-01-06T12:29:31;5.43;;;3.15;;
63714;SDS011;49858;48.956;9.076;2024-01-06T12:31:59;8.80;;;4.90;;
63714;SDS011;49858;48.956;9.076;2024-01-06T12:34:30;12.23;;;4.78;;
63714;SDS011;49858;48.956;9.076;2024-01-06T12:37:01;8.32;;;3.35;;
63714;SDS011;49858;48.956;9.076;2024-01-06T12:39:30;8.82;;;4.78;;
63714;SDS011;49858;48.956;9.076;2024-01-06T12:41:58;5.35;;;3.05;;
63714;SDS011;49858;48.956;9.076;2024-01-06T12:44:28;7.63;;;4.78;;
63714;SDS011;49858;48.956;9.076;2024-01-06T12:47:03;12.40;;;4.72;;
63714;SDS011;49858;48.956;9.076;2024-01-06T12:49:32;9.40;;;3.83;;
63714;SDS011;49858;48.956;9.076;2024-01-06T12:52:04;7.30;;;3.63;;
63714;SDS011;49858;48.956;9.076;2024-01-06T12:54:32;11.70;;;4.90;;
63714;SDS011;49858;48.956;9.076;2024-01-06T12:57:00;7.78;;;4.88;;
63714;SDS011;49858;48.956;9.076;2024-01-06T12:59:28;7.57;;;3.33;;
63714;SDS011;49858;48.956;9.076;2024-01-06T13:01:57;7.18;;;2.78;;
63714;SDS011;49858;48.956;9.076;2024-01-06T13:04:27;5.40;;;4.05;;
63714;SDS011;49858;48.956;9.076;2024-01-06T13:06:55;11.55;;;4.28;;
63714;SDS011;49858;48.956;9.076;2024-01-06T13:09:28;7.25;;;4.28;;
63714;SDS011;49858;48.956;9.076;2024-01-06T13:11:56;6.03;;;3.60;;
63714;SDS011;49858;48.956;9.076;2024-01-06T13:14:29;12.23;;;6.25;;
63714;SDS011;49858;48.956;9.076;2024-01-06T13:16:57;5.03;;;3.30;;
63714;SDS011;49858;48.956;9.076;2024-01-06T13:19:28;6.18;;;4.28;;
63714;SDS011;49858;48.956;9.076;2024-01-06T13:21:56;9.95;;;5.72;;
63714;SDS011;49858;48.956;9.076;2024-01-06T13:24:24;6.35;;;3.30;;
63714;SDS011;49858;48.956;9.076;2024-01-06T13:26:52;7.90;;;3.47;;
63714;SDS011;49858;48.956;9.076;2024-01-06T13:29:19;4.75;;;3.53;;
63714;SDS011;49858;48.956;9.076;2024-01-06T13:31:46;9.38;;;5.90;;
63714;SDS011;49858;48.956;9.076;2024-01-06T13:34:15;10.32;;;4.05;;
63714;SDS011;49858;48.956;9.076;2024-01-06T13:36:45;8.10;;;4.50;;
63714;SDS011;49858;48.956;9.076;2024-01-06T13:39:13;4.93;;;3.17;;
63714;SDS011;49858;48.956;9.076;2024-01-06T13:41:47;5.72;;;3.55;;
63714;SDS011;49858;48.956;9.076;2024-01-06T13:44:15;11.07;;;3.90;;
63714;SDS011;49858;48.956;9.076;2024-01-06T13:46:43;10.52;;;4.38;;
63714;SDS011;49858;48.956;9.076;2024-01-06T13:49:12;6.40;;;3.70;;
63714;SDS011;49858;48.956;9.076;2024-01-06T13:51:42;5.85;;;3.42;;
63714;SDS011;49858;48.956;9.076;2024-01-06T13:54:12;9.43;;;5.30;;
63714;SDS011;49858;48.956;9.076;2024-01-06T13:56:44;9.48;;;5.00;;
63714;SDS011;49858;48.956;9.076;2024-01-06T13:59:13;7.25;;;4.15;;
63714;SDS011;49858;48.956;9.076;2024-01-06T14:01:41;4.32;;;2.83;;
63714;SDS011;49858;48.956;9.076;2024-01-06T14:04:09;8.98;;;4.63;;
63714;SDS011;49858;48.956;9.076;2024-01-06T14:06:37;6.78;;;4.38;;
63714;SDS011;49858;48.956;9.076;2024-01-06T14:09:06;10.98;;;4.10;;
63714;SDS011;49858;48.956;9.076;2024-01-06T14:11:35;10.00;;;5.85;;
63714;SDS011;49858;48.956;9.076;2024-01-06T14:14:03;13.07;;;7.13;;
63714;SDS011;49858;48.956;9.076;2024-01-06T14:16:31;6.03;;;3.78;;
63714;SDS011;49858;48.956;9.076;2024-01-06T14:18:59;4.85;;;3.08;;
63714;SDS011;49858;48.956;9.076;2024-01-06T14:21:28;9.93;;;5.32;;
63714;SDS011;49858;48.956;9.076;2024-01-06T14:23:55;8.18;;;4.95;;
63714;SDS011;49858;48.956;9.076;2024-01-06T14:26:25;10.73;;;5.80;;
63714;SDS011;49858;48.956;9.076;2024-01-06T14:28:54;9.18;;;4.78;;
63714;SDS011;49858;48.956;9.076;2024-01-06T14:31:22;8.32;;;4.75;;
63714;SDS011;49858;48.956;9.076;2024-01-06T14:33:50;12.98;;;6.03;;
63714;SDS011;49858;48.956;9.076;2024-01-06T14:36:18;3.00;;;2.33;;
63714;SDS011;49858;48.956;9.076;2024-01-06T14:38:46;7.65;;;5.05;;
63714;SDS011;49858;48.956;9.076;2024-01-06T14:41:14;12.75;;;6.22;;
63714;SDS011;49858;48.956;9.076;2024-01-06T14:43:41;11.77;;;6.63;;
63714;SDS011;49858;48.956;9.076;2024-01-06T14:46:11;8.02;;;4.28;;
63714;SDS011;49858;48.956;9.076;2024-01-06T14:48:39;3.78;;;3.13;;
63714;SDS011;49858;48.956;9.076;2024-01-06T14:51:07;13.20;;;6.30;;
63714;SDS011;49858;48.956;9.076;2024-01-06T14:53:35;4.63;;;2.80;;
63714;SDS011;49858;48.956;9.076;2024-01-06T14:56:03;12.60;;;6.32;;
63714;SDS011;49858;48.956;9.076;2024-01-06T14:58:31;5.85;;;2.97;;
63714;SDS011;49858;48.956;9.076;2024-01-06T15:00:59;3.25;;;2.25;;